Time;durP1;ratioP1;P1;durP2;ratioP2;P2;SDS_P1;SDS_P2;PMS_P1;PMS_P2;Temp;Humidity;BMP_temperature;BMP_pressure;BME280_temperature;BME280_humidity;BME280_pressure;Samples;Min_cycle;Max_cycle;Signal;HPM_P1;HPM_P2
2022/04/17 00:01:42;;;;;;;17.77;15.57;;;;;;;;;;4967003;28;20425;-88
2022/04/17 00:04:48;;;;;;;18.00;16.05;;;;;;;;;;4960118;28;20970;-89
2022/04/17 00:07:54;;;;;;;15.90;14.30;;;;;;;;;;4970203;28;20311;-90
2022/04/17 00:11:01;;;;;;;18.40;16.48;;;;;;;;;;4959804;28;21000;-89
2022/04/17 00:14:06;;;;;;;21.73;19.38;;;;;;;;;;4964147;28;20198;-90
2022/04/17 00:17:13;;;;;;;20.20;18.10;;;;;;;;;;4962123;28;20193;-89
2022/04/17 00:20:18;;;;;;;22.00;19.77;;;;;;;;;;4968082;28;20448;-89
2022/04/17 00:23:24;;;;;;;20.27;18.17;;;;;;;;;;4966176;28;20243;-89
2022/04/17 00:26:29;;;;;;;18.83;17.08;;;;;;;;;;4962042;28;20190;-90
2022/04/17 00:29:35;;;;;;;21.40;18.88;;;;;;;;;;4972102;28;20267;-90
2022/04/17 00:32:41;;;;;;;21.05;18.95;;;;;;;;;;4962231;28;20260;-89
2022/04/17 00:35:47;;;;;;;30.02;26.05;;;;;;;;;;4950735;28;20179;-90
2022/04/17 00:38:53;;;;;;;33.38;30.00;;;;;;;;;;4959015;28;20300;-89
2022/04/17 00:42:02;;;;;;;26.80;24.30;;;;;;;;;;4966443;28;20186;-90
2022/04/17 00:45:04;;;;;;;23.52;21.20;;;;;;;;;;4966302;28;20200;-89
2022/04/17 00:48:10;;;;;;;23.13;20.67;;;;;;;;;;4962717;28;20213;-90
2022/04/17 00:51:16;;;;;;;21.58;18.95;;;;;;;;;;4973298;28;20197;-90
2022/04/17 00:54:25;;;;;;;20.90;18.70;;;;;;;;;;4964477;28;20193;-89
2022/04/17 00:57:31;;;;;;;19.50;17.60;;;;;;;;;;4953966;29;20208;-89
2022/04/17 01:00:37;;;;;;;18.58;16.85;;;;;;;;;;4953516;29;20182;-89
2022/04/17 01:03:43;;;;;;;30.90;27.70;;;;;;;;;;4959108;28;20198;-90
2022/04/17 01:06:48;;;;;;;30.27;27.00;;;;;;;;;;4967062;28;20190;-89
2022/04/17 01:09:54;;;;;;;25.52;22.83;;;;;;;;;;4972550;28;20241;-89
2022/04/17 01:13:00;;;;;;;22.17;18.85;;;;;;;;;;4965884;28;20197;-89
2022/04/17 01:16:06;;;;;;;19.88;17.80;;;;;;;;;;4967755;28;20186;-89
2022/04/17 01:19:18;;;;;;;18.08;16.15;;;;;;;;;;4969800;28;20201;-90
2022/04/17 01:22:25;;;;;;;20.48;18.33;;;;;;;;;;4966517;28;20217;-89
2022/04/17 01:28:34;;;;;;;17.17;15.13;;;;;;;;;;4962501;28;20237;-90
2022/04/17 01:31:40;;;;;;;30.58;27.35;;;;;;;;;;4972370;28;20189;-89
2022/04/17 01:34:46;;;;;;;33.83;26.80;;;;;;;;;;4955995;28;20218;-90
2022/04/17 01:37:52;;;;;;;35.92;30.30;;;;;;;;;;4968610;28;20264;-89
2022/04/17 01:40:58;;;;;;;23.23;20.00;;;;;;;;;;4966289;28;20198;-89
2022/04/17 01:44:05;;;;;;;29.48;23.17;;;;;;;;;;4967709;28;20249;-89
2022/04/17 01:47:11;;;;;;;24.67;19.15;;;;;;;;;;4976660;28;20186;-89
2022/04/17 01:50:17;;;;;;;23.27;20.88;;;;;;;;;;4971635;28;20322;-90
2022/04/17 01:53:22;;;;;;;25.23;22.73;;;;;;;;;;4961161;28;20197;-89
2022/04/17 01:56:28;;;;;;;26.98;24.08;;;;;;;;;;4960599;28;20265;-90
2022/04/17 01:59:34;;;;;;;27.05;21.98;;;;;;;;;;4964219;28;20197;-89
2022/04/17 02:02:40;;;;;;;22.65;20.20;;;;;;;;;;4955686;28;20245;-89
2022/04/17 02:05:46;;;;;;;16.98;15.50;;;;;;;;;;4964002;28;20221;-88
2022/04/17 02:08:52;;;;;;;15.63;14.32;;;;;;;;;;4962524;28;20229;-89
2022/04/17 02:11:59;;;;;;;12.23;11.23;;;;;;;;;;4968908;28;20649;-88
2022/04/17 02:15:05;;;;;;;11.43;10.32;;;;;;;;;;4963596;28;20529;-89
2022/04/17 02:18:11;;;;;;;11.20;10.23;;;;;;;;;;4966406;28;20193;-89
2022/04/17 02:21:17;;;;;;;12.60;10.35;;;;;;;;;;4968308;28;20252;-89
2022/04/17 02:24:22;;;;;;;11.48;9.65;;;;;;;;;;4958863;28;20198;-89
2022/04/17 02:27:28;;;;;;;10.30;9.40;;;;;;;;;;4965352;28;20585;-89
2022/04/17 02:30:20;;;;;;;8.93;8.13;;;;;;;;;;4981481;28;20464;-91
2022/04/17 02:32:46;;;;;;;9.30;8.30;;;;;;;;;;4974657;28;20169;-90
2022/04/17 02:35:12;;;;;;;7.55;7.03;;;;;;;;;;4997333;28;20401;-91
2022/04/17 02:37:49;;;;;;;6.97;6.53;;;;;;;;;;4979078;28;20198;-91
2022/04/17 02:40:15;;;;;;;7.55;6.85;;;;;;;;;;4971811;28;20574;-92
2022/04/17 02:42:42;;;;;;;7.28;6.70;;;;;;;;;;4990153;28;20186;-92
2022/04/17 02:45:09;;;;;;;7.85;7.15;;;;;;;;;;4953509;28;20210;-91
2022/04/17 02:47:45;;;;;;;12.25;10.48;;;;;;;;;;4967924;28;20221;-91
2022/04/17 02:50:12;;;;;;;6.78;6.10;;;;;;;;;;4954544;28;20189;-92
2022/04/17 02:52:38;;;;;;;7.13;6.63;;;;;;;;;;4966546;28;20212;-91
2022/04/17 02:55:04;;;;;;;5.80;5.50;;;;;;;;;;4983201;28;20178;-90
2022/04/17 02:57:31;;;;;;;5.22;5.03;;;;;;;;;;4962086;28;20193;-92
2022/04/17 03:00:00;;;;;;;6.90;6.40;;;;;;;;;;4943430;29;20202;-91
2022/04/17 03:07:59;;;;;;;6.05;5.55;;;;;;;;;;4968251;28;20225;-91
2022/04/17 03:10:25;;;;;;;8.33;7.53;;;;;;;;;;4971752;28;20418;-92
2022/04/17 03:12:51;;;;;;;11.00;9.20;;;;;;;;;;4969958;28;20433;-90
2022/04/17 03:15:21;;;;;;;6.80;6.30;;;;;;;;;;4990540;28;20209;-91
2022/04/17 03:17:53;;;;;;;5.30;5.00;;;;;;;;;;4966628;28;20674;-92
2022/04/17 03:20:26;;;;;;;5.97;5.57;;;;;;;;;;4969609;28;20190;-92
2022/04/17 03:22:56;;;;;;;5.95;5.55;;;;;;;;;;4955392;28;20182;-90
2022/04/17 03:25:22;;;;;;;7.10;6.60;;;;;;;;;;4971530;28;20530;-91
2022/04/17 03:27:51;;;;;;;4.90;4.80;;;;;;;;;;4949225;28;20265;-92
2022/04/17 03:30:18;;;;;;;5.03;4.73;;;;;;;;;;4964999;28;20446;-92
2022/04/17 03:32:44;;;;;;;6.65;4.15;;;;;;;;;;4967199;28;20517;-93
2022/04/17 03:35:12;;;;;;;4.40;4.05;;;;;;;;;;4939963;28;20199;-94
2022/04/17 03:37:38;;;;;;;3.72;3.55;;;;;;;;;;4962044;28;20201;-93
2022/04/17 03:40:05;;;;;;;3.90;3.80;;;;;;;;;;4975486;28;20196;-93
2022/04/17 03:42:32;;;;;;;3.83;3.63;;;;;;;;;;4967992;28;20426;-93
2022/04/17 03:44:58;;;;;;;3.80;3.50;;;;;;;;;;4962699;28;20455;-94
2022/04/17 03:47:27;;;;;;;3.33;3.23;;;;;;;;;;4957492;28;20768;-94
2022/04/17 03:49:53;;;;;;;3.92;3.70;;;;;;;;;;4948795;28;20951;-93
2022/04/17 03:52:19;;;;;;;3.67;3.42;;;;;;;;;;4947121;28;20276;-94
2022/04/17 03:54:45;;;;;;;3.53;3.37;;;;;;;;;;4959050;28;20209;-94
2022/04/17 03:57:11;;;;;;;3.63;3.43;;;;;;;;;;4960416;28;20437;-93
2022/04/17 03:59:37;;;;;;;3.85;3.65;;;;;;;;;;4963532;28;20457;-93
2022/04/17 04:02:07;;;;;;;3.80;3.70;;;;;;;;;;4943455;29;20170;-93
2022/04/17 04:04:33;;;;;;;3.47;3.35;;;;;;;;;;4965740;28;20186;-94
2022/04/17 04:06:59;;;;;;;3.58;3.40;;;;;;;;;;4962264;28;20214;-93
2022/04/17 04:09:28;;;;;;;3.90;3.63;;;;;;;;;;4979843;28;20201;-93
2022/04/17 04:11:54;;;;;;;3.80;3.55;;;;;;;;;;4990902;28;20428;-93
2022/04/17 04:14:20;;;;;;;3.40;3.30;;;;;;;;;;4963814;28;20656;-93
2022/04/17 04:16:48;;;;;;;4.20;3.80;;;;;;;;;;4941230;28;20430;-94
2022/04/17 04:19:14;;;;;;;3.20;3.00;;;;;;;;;;4944870;29;20182;-94
2022/04/17 04:24:39;;;;;;;3.65;3.22;;;;;;;;;;4931949;28;20853;-94
2022/04/17 04:29:50;;;;;;;3.60;3.35;;;;;;;;;;4977641;28;21048;-94
2022/04/17 04:32:21;;;;;;;4.43;2.90;;;;;;;;;;4957488;28;20876;-93
2022/04/17 04:34:48;;;;;;;3.05;2.95;;;;;;;;;;4952665;28;20532;-92
2022/04/17 04:37:14;;;;;;;3.50;3.30;;;;;;;;;;4954298;28;20191;-94
2022/04/17 04:39:40;;;;;;;2.80;2.70;;;;;;;;;;4952109;29;20183;-93
2022/04/17 04:42:08;;;;;;;2.83;2.73;;;;;;;;;;4960994;28;20289;-93
2022/04/17 04:44:37;;;;;;;3.17;3.05;;;;;;;;;;4952680;28;20441;-93
2022/04/17 04:47:03;;;;;;;3.30;3.10;;;;;;;;;;4941583;28;20221;-91
2022/04/17 04:49:32;;;;;;;2.73;2.63;;;;;;;;;;4959452;28;20194;-94
2022/04/17 04:52:01;;;;;;;3.20;3.03;;;;;;;;;;4960723;28;20528;-93
2022/04/17 04:54:31;;;;;;;3.05;3.05;;;;;;;;;;4957724;28;20430;-93
2022/04/17 04:56:57;;;;;;;3.35;3.25;;;;;;;;;;4960866;28;20186;-93
2022/04/17 04:59:23;;;;;;;3.20;3.10;;;;;;;;;;4960820;28;20214;-94
2022/04/17 05:01:53;;;;;;;3.40;3.40;;;;;;;;;;4942088;28;20183;-94
2022/04/17 05:04:27;;;;;;;3.22;3.08;;;;;;;;;;4945833;29;20718;-94
2022/04/17 05:06:53;;;;;;;3.47;3.10;;;;;;;;;;4958452;28;20241;-93
2022/04/17 05:09:19;;;;;;;2.87;2.77;;;;;;;;;;4961156;28;20453;-93
2022/04/17 05:11:46;;;;;;;3.07;2.97;;;;;;;;;;4964477;28;20432;-93
2022/04/17 05:14:12;;;;;;;3.40;3.10;;;;;;;;;;4958455;28;20434;-94
2022/04/17 05:16:39;;;;;;;5.63;4.37;;;;;;;;;;4958253;29;20182;-93
2022/04/17 05:19:20;;;;;;;3.83;3.60;;;;;;;;;;4955122;28;20945;-93
2022/04/17 05:21:47;;;;;;;3.67;3.60;;;;;;;;;;4978107;28;20190;-94
2022/04/17 05:24:18;;;;;;;4.80;3.30;;;;;;;;;;4413720;28;10001777;-94
2022/04/17 05:26:45;;;;;;;2.90;2.80;;;;;;;;;;4952871;28;20712;-94
2022/04/17 05:29:17;;;;;;;3.13;3.03;;;;;;;;;;4973471;28;20510;-91
2022/04/17 05:31:42;;;;;;;4.23;3.30;;;;;;;;;;4953507;28;20667;-92
2022/04/17 05:34:11;;;;;;;4.07;2.80;;;;;;;;;;4974473;28;20437;-93
2022/04/17 05:36:37;;;;;;;2.75;2.65;;;;;;;;;;4957798;28;20590;-93
2022/04/17 05:39:06;;;;;;;3.00;2.90;;;;;;;;;;4948523;28;20217;-93
2022/04/17 05:41:33;;;;;;;2.37;2.37;;;;;;;;;;4957935;28;20457;-93
2022/04/17 05:44:04;;;;;;;2.93;2.83;;;;;;;;;;4956913;28;20461;-93
2022/04/17 05:46:36;;;;;;;2.43;2.30;;;;;;;;;;4967759;28;20438;-93
2022/04/17 05:49:06;;;;;;;2.65;2.55;;;;;;;;;;4946221;28;20480;-93
2022/04/17 05:51:38;;;;;;;4.10;2.83;;;;;;;;;;4955616;28;20182;-94
2022/04/17 05:54:08;;;;;;;2.50;2.50;;;;;;;;;;4960824;28;20429;-92
2022/04/17 05:56:37;;;;;;;3.50;3.20;;;;;;;;;;4944824;28;20962;-92
2022/04/17 05:59:07;;;;;;;2.00;2.00;;;;;;;;;;4948783;28;20447;-91
2022/04/17 06:01:36;;;;;;;2.47;2.47;;;;;;;;;;4954930;28;20421;-94
2022/04/17 06:04:05;;;;;;;2.73;2.73;;;;;;;;;;4964774;28;20495;-91
2022/04/17 06:06:31;;;;;;;2.43;2.33;;;;;;;;;;4940844;29;20430;-93
2022/04/17 06:08:57;;;;;;;2.83;2.73;;;;;;;;;;4946324;28;21006;-93
2022/04/17 06:11:26;;;;;;;2.57;2.57;;;;;;;;;;4955011;28;20447;-92
2022/04/17 06:13:58;;;;;;;2.60;2.60;;;;;;;;;;4973315;28;20445;-92
2022/04/17 06:16:24;;;;;;;2.37;2.30;;;;;;;;;;4961971;28;20433;-93
2022/04/17 06:18:50;;;;;;;3.10;3.00;;;;;;;;;;4960776;28;20448;-92
2022/04/17 06:21:19;;;;;;;2.30;2.30;;;;;;;;;;4956410;28;20438;-91
2022/04/17 06:23:54;;;;;;;2.30;2.30;;;;;;;;;;4946329;28;20427;-93
2022/04/17 06:26:22;;;;;;;2.70;2.57;;;;;;;;;;4966473;28;20797;-93
2022/04/17 06:28:53;;;;;;;2.30;2.30;;;;;;;;;;4950318;29;20564;-93
2022/04/17 06:31:19;;;;;;;2.90;2.87;;;;;;;;;;4943045;29;20434;-91
2022/04/17 06:33:45;;;;;;;2.80;2.80;;;;;;;;;;4950267;29;20509;-90
2022/04/17 06:36:11;;;;;;;2.43;2.43;;;;;;;;;;4956439;29;20429;-91
2022/04/17 06:38:40;;;;;;;2.03;2.03;;;;;;;;;;4952004;29;20442;-91
2022/04/17 06:41:06;;;;;;;2.20;2.20;;;;;;;;;;4936144;29;20423;-91
2022/04/17 06:43:39;;;;;;;2.23;2.23;;;;;;;;;;4957184;29;20444;-91
2022/04/17 06:46:08;;;;;;;2.80;2.70;;;;;;;;;;4942132;29;20717;-92
2022/04/17 06:48:34;;;;;;;2.80;2.70;;;;;;;;;;4938285;29;20488;-91
2022/04/17 06:51:00;;;;;;;3.00;2.90;;;;;;;;;;4945721;29;20987;-93
2022/04/17 06:53:26;;;;;;;2.47;2.40;;;;;;;;;;4944947;29;20917;-91
2022/04/17 06:56:12;;;;;;;2.70;2.50;;;;;;;;;;4946134;29;20477;-93
2022/04/17 06:58:38;;;;;;;2.67;2.57;;;;;;;;;;4949355;29;20454;-92
2022/04/17 07:01:04;;;;;;;2.70;2.60;;;;;;;;;;4955661;29;20477;-93
2022/04/17 07:03:30;;;;;;;3.60;2.83;;;;;;;;;;4947040;29;20626;-93
2022/04/17 07:06:02;;;;;;;3.00;2.90;;;;;;;;;;4934514;29;20443;-92
2022/04/17 07:08:31;;;;;;;2.30;2.30;;;;;;;;;;4932912;29;20510;-92
2022/04/17 07:11:00;;;;;;;2.83;2.83;;;;;;;;;;4951198;29;20438;-94
2022/04/17 07:13:29;;;;;;;2.73;2.67;;;;;;;;;;4942915;29;20568;-92
2022/04/17 07:15:58;;;;;;;2.50;2.40;;;;;;;;;;4944294;29;20414;-92
2022/04/17 07:18:24;;;;;;;2.10;2.00;;;;;;;;;;4931556;29;20443;-92
2022/04/17 07:20:50;;;;;;;2.40;2.40;;;;;;;;;;4950723;29;20434;-92
2022/04/17 07:23:16;;;;;;;2.27;2.27;;;;;;;;;;4935583;29;20430;-92
2022/04/17 07:25:45;;;;;;;2.20;2.20;;;;;;;;;;4939516;29;20574;-91
2022/04/17 07:28:14;;;;;;;2.70;2.60;;;;;;;;;;4946764;29;20504;-93
2022/04/17 07:30:44;;;;;;;2.70;2.57;;;;;;;;;;4944031;28;20459;-91
2022/04/17 07:33:14;;;;;;;2.20;2.17;;;;;;;;;;4949312;29;20957;-92
2022/04/17 07:35:45;;;;;;;2.53;2.43;;;;;;;;;;4936519;29;20478;-92
2022/04/17 07:38:11;;;;;;;2.80;2.70;;;;;;;;;;4929843;29;20438;-91
2022/04/17 07:40:37;;;;;;;2.60;2.60;;;;;;;;;;4941092;29;20790;-90
2022/04/17 07:43:06;;;;;;;3.00;2.90;;;;;;;;;;4950262;29;20877;-91
2022/04/17 07:45:42;;;;;;;2.80;2.70;;;;;;;;;;4941156;29;20443;-94
2022/04/17 07:48:08;;;;;;;2.33;2.33;;;;;;;;;;4946182;29;20968;-93
2022/04/17 07:50:34;;;;;;;2.80;2.70;;;;;;;;;;4961438;29;20490;-92
2022/04/17 07:53:00;;;;;;;2.60;2.60;;;;;;;;;;4970946;28;20461;-91
2022/04/17 07:55:28;;;;;;;2.90;2.70;;;;;;;;;;4948064;29;20447;-93
2022/04/17 08:00:57;;;;;;;2.57;2.53;;;;;;;;;;4951631;29;20430;-93
2022/04/17 08:03:35;;;;;;;3.10;3.00;;;;;;;;;;4962172;29;20439;-93
2022/04/17 08:06:05;;;;;;;2.03;2.03;;;;;;;;;;4941838;29;20499;-92
2022/04/17 08:08:37;;;;;;;2.50;2.40;;;;;;;;;;4948275;29;20766;-92
2022/04/17 08:11:10;;;;;;;2.33;2.30;;;;;;;;;;4960637;28;20445;-92
2022/04/17 08:13:38;;;;;;;3.00;3.00;;;;;;;;;;5037650;23;20485;-91
2022/04/17 08:16:04;;;;;;;2.37;2.37;;;;;;;;;;4996365;28;20418;-91
2022/04/17 08:18:40;;;;;;;3.43;2.40;;;;;;;;;;4994791;28;20432;-93
2022/04/17 08:21:06;;;;;;;2.50;2.50;;;;;;;;;;4988180;28;20440;-92
2022/04/17 08:23:37;;;;;;;2.40;2.30;;;;;;;;;;4989025;28;20467;-93
2022/04/17 08:26:06;;;;;;;2.90;2.73;;;;;;;;;;4985733;28;20433;-92
2022/04/17 08:28:37;;;;;;;2.50;2.40;;;;;;;;;;4981281;28;20633;-90
2022/04/17 08:31:03;;;;;;;2.67;2.57;;;;;;;;;;4976342;28;20432;-92
2022/04/17 08:33:33;;;;;;;1.77;1.77;;;;;;;;;;4972235;28;20452;-91
2022/04/17 08:36:03;;;;;;;2.23;2.23;;;;;;;;;;4970226;28;20795;-93
2022/04/17 08:38:29;;;;;;;4.43;2.40;;;;;;;;;;4977816;28;20512;-95
2022/04/17 08:41:12;;;;;;;;;;;;;;;;;;;;;
2022/04/17 08:43:38;;;;;;;2.27;2.17;;;;;;;;;;4991096;28;20515;-95
2022/04/17 08:46:09;;;;;;;2.07;2.07;;;;;;;;;;4987814;28;20437;-95
2022/04/17 08:48:35;;;;;;;2.60;2.60;;;;;;;;;;4971961;28;20481;-90
2022/04/17 08:51:02;;;;;;;2.17;2.17;;;;;;;;;;4973772;28;20759;-91
2022/04/17 08:53:31;;;;;;;2.07;2.07;;;;;;;;;;4972951;28;20433;-90
2022/04/17 08:55:59;;;;;;;6.53;6.13;;;;;;;;;;4975298;28;20417;-92
2022/04/17 08:58:34;;;;;;;1.97;1.97;;;;;;;;;;4964995;28;20453;-90
2022/04/17 09:01:01;;;;;;;2.27;2.27;;;;;;;;;;4985685;28;20421;-90
2022/04/17 09:03:28;;;;;;;2.60;2.50;;;;;;;;;;4979361;28;20452;-90
2022/04/17 09:05:54;;;;;;;2.20;2.20;;;;;;;;;;4978568;28;20431;-90
2022/04/17 09:08:23;;;;;;;2.53;2.43;;;;;;;;;;4969529;28;20474;-90
2022/04/17 09:10:56;;;;;;;2.30;2.20;;;;;;;;;;4971382;28;20438;-90
2022/04/17 09:13:27;;;;;;;2.47;2.47;;;;;;;;;;4979689;28;20469;-90
2022/04/17 09:15:56;;;;;;;2.43;2.43;;;;;;;;;;4986297;28;20997;-89
2022/04/17 09:19:01;;;;;;;2.37;2.37;;;;;;;;;;4974618;28;20432;-90
2022/04/17 09:21:30;;;;;;;2.30;2.20;;;;;;;;;;4939322;29;20418;-88
2022/04/17 09:24:14;;;;;;;2.50;2.43;;;;;;;;;;4955732;29;20442;-91
2022/04/17 09:26:53;;;;;;;3.13;3.03;;;;;;;;;;4979411;28;20436;-90
2022/04/17 09:29:24;;;;;;;2.63;2.53;;;;;;;;;;4972577;28;20495;-89
2022/04/17 09:32:00;;;;;;;3.03;2.93;;;;;;;;;;4994839;28;20410;-86
2022/04/17 09:34:52;;;;;;;2.47;2.37;;;;;;;;;;4987330;28;20451;-89
2022/04/17 09:37:25;;;;;;;2.80;2.80;;;;;;;;;;4985177;28;20438;-90
2022/04/17 09:39:53;;;;;;;2.43;2.43;;;;;;;;;;4986236;28;20490;-91
2022/04/17 09:42:24;;;;;;;2.43;2.40;;;;;;;;;;4980195;28;20429;-89
2022/04/17 09:44:54;;;;;;;3.10;2.80;;;;;;;;;;4994064;28;20544;-90
2022/04/17 09:47:21;;;;;;;7.50;2.57;;;;;;;;;;4973421;28;20475;-89
2022/04/17 09:49:51;;;;;;;7.20;6.60;;;;;;;;;;4972417;28;20493;-91
2022/04/17 09:52:22;;;;;;;2.50;2.50;;;;;;;;;;4990931;28;20804;-90
2022/04/17 09:54:49;;;;;;;2.43;2.30;;;;;;;;;;4977810;28;20497;-91
2022/04/17 09:57:34;;;;;;;3.70;3.50;;;;;;;;;;4981773;28;20968;-90
2022/04/17 10:00:14;;;;;;;7.23;6.73;;;;;;;;;;4976999;28;20436;-89
2022/04/17 10:03:00;;;;;;;2.10;2.10;;;;;;;;;;4988170;28;20487;-89
2022/04/17 10:06:07;;;;;;;2.23;2.23;;;;;;;;;;4989750;28;20655;-91
2022/04/17 10:09:15;;;;;;;2.97;2.90;;;;;;;;;;4980387;28;20515;-91
2022/04/17 10:12:21;;;;;;;2.00;2.00;;;;;;;;;;4989848;28;20433;-90
2022/04/17 10:15:36;;;;;;;2.03;1.93;;;;;;;;;;4954864;29;20520;-90
2022/04/17 10:18:34;;;;;;;2.10;2.10;;;;;;;;;;4959336;28;20477;-90
2022/04/17 10:21:41;;;;;;;2.40;2.20;;;;;;;;;;4942227;28;20451;-89
2022/04/17 10:24:49;;;;;;;2.00;2.00;;;;;;;;;;4947548;29;20889;-89
2022/04/17 10:27:37;;;;;;;2.03;2.03;;;;;;;;;;4951186;29;20521;-90
2022/04/17 10:30:46;;;;;;;2.10;2.10;;;;;;;;;;4952999;29;21076;-91
2022/04/17 10:33:52;;;;;;;2.73;2.53;;;;;;;;;;4940330;28;21003;-91
2022/04/17 10:37:01;;;;;;;2.13;2.13;;;;;;;;;;4951649;28;20826;-90
2022/04/17 10:40:06;;;;;;;2.10;2.10;;;;;;;;;;4949044;29;20435;-88
2022/04/17 10:43:21;;;;;;;2.37;2.20;;;;;;;;;;4940836;29;20932;-90
2022/04/17 10:46:27;;;;;;;3.80;2.50;;;;;;;;;;4942705;29;20976;-89
2022/04/17 10:49:33;;;;;;;3.43;2.30;;;;;;;;;;4948458;28;20581;-91
2022/04/17 10:52:48;;;;;;;12.30;11.47;;;;;;;;;;4945219;29;20427;-88
2022/04/17 10:56:00;;;;;;;1.83;1.83;;;;;;;;;;4938408;29;20458;-90
2022/04/17 10:59:01;;;;;;;3.70;3.60;;;;;;;;;;4949775;29;20721;-89
2022/04/17 11:02:10;;;;;;;1.97;1.90;;;;;;;;;;4949497;29;20513;-89
2022/04/17 11:05:15;;;;;;;2.20;2.20;;;;;;;;;;4951218;28;20781;-91
2022/04/17 11:08:25;;;;;;;2.00;2.00;;;;;;;;;;4944177;28;20487;-91
2022/04/17 11:11:30;;;;;;;2.03;2.03;;;;;;;;;;4947395;29;20924;-90
2022/04/17 11:14:36;;;;;;;2.00;2.00;;;;;;;;;;4981073;28;20675;-91
2022/04/17 11:17:41;;;;;;;2.30;1.87;;;;;;;;;;4984371;28;20440;-90
2022/04/17 11:20:47;;;;;;;2.03;2.03;;;;;;;;;;4985252;28;20441;-91
2022/04/17 11:23:49;;;;;;;1.70;1.70;;;;;;;;;;4992997;28;20494;-90
2022/04/17 11:27:41;;;;;;;2.00;2.00;;;;;;;;;;5001683;28;20424;-92
2022/04/17 11:30:17;;;;;;;2.77;2.67;;;;;;;;;;4991483;28;20424;-87
2022/04/17 11:33:20;;;;;;;2.23;2.23;;;;;;;;;;4966878;28;20436;-90
2022/04/17 11:36:28;;;;;;;1.77;1.77;;;;;;;;;;4979013;28;20417;-90
2022/04/17 11:39:49;;;;;;;1.80;1.80;;;;;;;;;;4992651;28;20492;-92
2022/04/17 11:42:55;;;;;;;1.60;1.60;;;;;;;;;;4988155;28;20531;-88
2022/04/17 11:46:07;;;;;;;1.73;1.53;;;;;;;;;;4990957;28;20428;-91
2022/04/17 11:49:15;;;;;;;1.70;1.70;;;;;;;;;;4981509;28;20468;-91
2022/04/17 11:52:14;;;;;;;1.90;1.90;;;;;;;;;;4989431;28;20406;-90
2022/04/17 11:55:20;;;;;;;2.00;1.90;;;;;;;;;;4990536;28;20431;-91
2022/04/17 11:58:26;;;;;;;1.60;1.60;;;;;;;;;;4980418;28;20456;-90
2022/04/17 12:01:37;;;;;;;2.83;2.10;;;;;;;;;;4981505;28;20600;-89
2022/04/17 12:04:43;;;;;;;1.90;1.90;;;;;;;;;;4992444;28;20463;-91
2022/04/17 12:07:50;;;;;;;2.10;1.97;;;;;;;;;;4981373;28;20511;-90
2022/04/17 12:10:56;;;;;;;1.50;1.50;;;;;;;;;;4989383;28;20416;-89
2022/04/17 12:14:02;;;;;;;1.60;1.60;;;;;;;;;;4983683;28;20452;-92
2022/04/17 12:17:11;;;;;;;2.60;2.50;;;;;;;;;;4984174;28;20531;-90
2022/04/17 12:20:19;;;;;;;2.10;1.93;;;;;;;;;;4986576;28;20899;-89
2022/04/17 12:23:24;;;;;;;1.77;1.77;;;;;;;;;;4990357;28;20925;-90
2022/04/17 12:26:33;;;;;;;1.70;1.70;;;;;;;;;;4988237;28;20927;-89
2022/04/17 12:29:40;;;;;;;1.97;1.97;;;;;;;;;;4987532;28;20503;-88
2022/04/17 12:32:45;;;;;;;2.30;2.30;;;;;;;;;;4983853;28;20428;-90
2022/04/17 12:35:51;;;;;;;2.07;1.97;;;;;;;;;;4978131;28;20436;-89
2022/04/17 12:39:02;;;;;;;1.60;1.60;;;;;;;;;;4986710;28;20443;-88
2022/04/17 12:42:05;;;;;;;2.17;2.07;;;;;;;;;;4978561;28;20579;-90
2022/04/17 12:45:12;;;;;;;2.17;2.17;;;;;;;;;;4976563;28;20433;-90
2022/04/17 12:48:20;;;;;;;1.83;1.83;;;;;;;;;;4988099;28;20606;-90
2022/04/17 12:51:26;;;;;;;1.80;1.80;;;;;;;;;;4976979;28;20433;-91
2022/04/17 12:54:32;;;;;;;1.67;1.67;;;;;;;;;;4988049;28;21151;-91
2022/04/17 12:57:43;;;;;;;1.90;1.80;;;;;;;;;;4982546;28;20425;-90
2022/04/17 13:03:40;;;;;;;1.90;1.77;;;;;;;;;;3048141;23;20556;-89
2022/04/17 13:06:53;;;;;;;1.90;1.80;;;;;;;;;;4974914;28;20403;-89
2022/04/17 13:09:52;;;;;;;1.90;1.90;;;;;;;;;;4966732;29;20427;-90
2022/04/17 13:13:19;;;;;;;1.63;1.63;;;;;;;;;;4962655;29;20465;-88
2022/04/17 13:16:20;;;;;;;1.50;1.50;;;;;;;;;;4963298;29;20612;-89
2022/04/17 13:19:24;;;;;;;1.87;1.77;;;;;;;;;;4959871;29;20449;-90
2022/04/17 13:22:38;;;;;;;1.60;1.60;;;;;;;;;;4966383;29;20418;-89
2022/04/17 13:25:39;;;;;;;1.50;1.40;;;;;;;;;;4960075;29;20942;-89
2022/04/17 13:28:45;;;;;;;2.23;2.13;;;;;;;;;;4968725;29;20484;-89
2022/04/17 13:31:54;;;;;;;1.40;1.40;;;;;;;;;;4954006;29;20452;-91
2022/04/17 13:34:46;;;;;;;2.03;2.03;;;;;;;;;;4952657;29;20715;-90
2022/04/17 13:40:32;;;;;;;1.53;1.47;;;;;;;;;;4241267;26;20484;-89
2022/04/17 13:43:04;;;;;;;1.50;1.50;;;;;;;;;;5007500;28;20428;-87
2022/04/17 13:45:48;;;;;;;1.33;1.33;;;;;;;;;;4972844;28;20453;-88
2022/04/17 13:48:14;;;;;;;1.93;1.90;;;;;;;;;;4968494;28;20477;-90
2022/04/17 13:51:07;;;;;;;1.30;1.30;;;;;;;;;;5010238;28;20559;-90
2022/04/17 13:53:48;;;;;;;2.00;1.90;;;;;;;;;;4981812;28;20477;-88
2022/04/17 13:56:21;;;;;;;1.67;1.50;;;;;;;;;;4972428;28;20445;-89
2022/04/17 13:58:54;;;;;;;1.70;1.70;;;;;;;;;;5002848;28;20440;-88
2022/04/17 14:01:33;;;;;;;1.50;1.50;;;;;;;;;;5004386;28;20409;-88
2022/04/17 14:04:11;;;;;;;1.43;1.43;;;;;;;;;;4989069;28;20436;-87
2022/04/17 14:06:40;;;;;;;1.63;1.63;;;;;;;;;;4964267;28;20515;-88
2022/04/17 14:09:08;;;;;;;1.30;1.30;;;;;;;;;;4998055;28;20487;-89
2022/04/17 14:11:34;;;;;;;2.20;2.03;;;;;;;;;;4988349;28;20504;-88
2022/04/17 14:14:10;;;;;;;3.90;3.80;;;;;;;;;;5000139;28;20444;-89
2022/04/17 14:16:39;;;;;;;1.50;1.50;;;;;;;;;;4987624;28;20432;-88
2022/04/17 14:19:07;;;;;;;2.40;2.33;;;;;;;;;;5000021;28;20472;-90
2022/04/17 14:21:34;;;;;;;2.27;2.27;;;;;;;;;;4999290;28;20540;-87
2022/04/17 14:24:13;;;;;;;1.83;1.83;;;;;;;;;;4991523;28;20528;-91
2022/04/17 14:27:13;;;;;;;3.60;2.53;;;;;;;;;;4990563;28;20394;-90
2022/04/17 14:29:40;;;;;;;2.70;2.00;;;;;;;;;;4985959;28;20468;-87
2022/04/17 14:32:06;;;;;;;2.33;2.33;;;;;;;;;;4993975;28;20424;-85
2022/04/17 14:34:32;;;;;;;2.47;2.37;;;;;;;;;;4996453;28;20436;-89
2022/04/17 14:37:08;;;;;;;2.07;2.07;;;;;;;;;;5005520;28;20435;-86
2022/04/17 14:39:35;;;;;;;1.90;1.80;;;;;;;;;;4984746;28;20417;-87
2022/04/17 14:42:04;;;;;;;13.73;12.70;;;;;;;;;;4999974;28;20396;-86
2022/04/17 14:47:10;;;;;;;2.23;2.23;;;;;;;;;;4945042;26;20560;-83
2022/04/17 14:49:44;;;;;;;2.40;2.40;;;;;;;;;;4967348;28;20441;-83
2022/04/17 14:52:10;;;;;;;2.80;2.80;;;;;;;;;;4966995;28;20441;-79
2022/04/17 14:54:46;;;;;;;2.37;2.37;;;;;;;;;;4968092;28;20441;-82
2022/04/17 14:57:12;;;;;;;2.13;2.13;;;;;;;;;;4950608;29;20595;-83
2022/04/17 14:59:45;;;;;;;2.93;2.73;;;;;;;;;;4958500;28;20887;-84
2022/04/17 15:02:21;;;;;;;2.30;2.30;;;;;;;;;;4967758;28;20732;-83
2022/04/17 15:04:47;;;;;;;3.23;2.93;;;;;;;;;;4949174;28;20925;-81
2022/04/17 15:07:16;;;;;;;3.33;3.23;;;;;;;;;;4968341;28;20568;-83
2022/04/17 15:10:03;;;;;;;3.10;3.00;;;;;;;;;;4968032;28;20849;-81
2022/04/17 15:12:32;;;;;;;2.47;2.47;;;;;;;;;;4968281;28;20616;-85
2022/04/17 15:15:02;;;;;;;3.40;3.13;;;;;;;;;;4969722;28;20835;-82
2022/04/17 15:17:28;;;;;;;3.03;2.93;;;;;;;;;;4968675;28;20472;-82
2022/04/17 15:19:54;;;;;;;2.93;2.83;;;;;;;;;;4968401;28;20544;-84
2022/04/17 15:22:22;;;;;;;3.20;3.10;;;;;;;;;;4970777;28;20931;-82
2022/04/17 15:24:49;;;;;;;2.50;2.40;;;;;;;;;;4967173;28;20520;-83
2022/04/17 15:27:15;;;;;;;2.30;2.30;;;;;;;;;;4968584;28;20439;-82
2022/04/17 15:29:47;;;;;;;6.60;3.20;;;;;;;;;;4967427;28;20437;-82
2022/04/17 15:32:20;;;;;;;2.80;2.67;;;;;;;;;;4969395;28;20432;-82
2022/04/17 15:34:52;;;;;;;2.43;2.33;;;;;;;;;;4968519;28;20468;-82
2022/04/17 15:37:21;;;;;;;5.77;5.27;;;;;;;;;;4971607;28;20503;-81
2022/04/17 15:39:47;;;;;;;3.27;3.17;;;;;;;;;;4967401;28;20448;-83
2022/04/17 15:42:16;;;;;;;3.27;3.20;;;;;;;;;;4967834;28;20479;-80
2022/04/17 15:50:20;;;;;;;3.50;3.20;;;;;;;;;;4954946;28;20919;-81
2022/04/17 15:52:46;;;;;;;2.80;2.70;;;;;;;;;;4968217;28;20695;-82
2022/04/17 15:55:12;;;;;;;2.10;2.10;;;;;;;;;;4961938;28;21203;-80
2022/04/17 15:57:40;;;;;;;2.97;2.87;;;;;;;;;;4968324;28;20468;-79
2022/04/17 16:00:06;;;;;;;3.47;3.17;;;;;;;;;;4956301;28;20522;-81
2022/04/17 16:02:36;;;;;;;3.10;3.00;;;;;;;;;;4280137;28;10000750;-82
2022/04/17 16:05:05;;;;;;;2.93;2.73;;;;;;;;;;4966851;28;20177;-79
2022/04/17 16:07:31;;;;;;;3.00;2.90;;;;;;;;;;4951338;28;20780;-83
2022/04/17 16:10:03;;;;;;;2.87;2.77;;;;;;;;;;4961481;28;20768;-82
2022/04/17 16:12:29;;;;;;;2.50;2.27;;;;;;;;;;4962876;28;20769;-79
2022/04/17 16:14:55;;;;;;;2.97;2.83;;;;;;;;;;4958455;28;20965;-82
2022/04/17 16:17:23;;;;;;;2.67;2.57;;;;;;;;;;4957583;28;20449;-84
2022/04/17 16:19:50;;;;;;;3.00;2.80;;;;;;;;;;4959759;28;20437;-82
2022/04/17 16:22:16;;;;;;;4.27;3.97;;;;;;;;;;4955110;28;20451;-81
2022/04/17 16:24:42;;;;;;;18.63;14.93;;;;;;;;;;4966582;28;20587;-80
2022/04/17 16:27:08;;;;;;;20.13;18.57;;;;;;;;;;4967975;28;20488;-82
2022/04/17 16:29:34;;;;;;;5.50;5.30;;;;;;;;;;4963375;28;20544;-83
2022/04/17 16:32:00;;;;;;;7.00;6.50;;;;;;;;;;4961010;28;20456;-81
2022/04/17 16:34:26;;;;;;;5.10;4.40;;;;;;;;;;4960830;28;20445;-81
2022/04/17 16:36:52;;;;;;;3.80;3.70;;;;;;;;;;4960558;28;20453;-79